Skip to main content

Santa Cruz (Aeródromo)

ID 1210746 · 39.1259, -9.3790 map

Latest reading · 2026-05-09 19:00 (Europe/Lisbon)

Temperature
15.5 °C
Humidity
78 %
Pressure
1,006.6 hPa
Precipitation
0.0 mm
Radiation
351 W/m²
Wind speed
29.5 km/h
Wind direction
S · South

24-hour history

Time (Europe/Lisbon) Temp Humidity Pressure Rain Wind Dir
2026-05-09 19:00 15.5 °C 78 % 1,006.6 0.0 mm 29.5 km/h S
2026-05-09 18:00 14.6 °C 82 % 1,006.1 0.0 mm 28.1 km/h S
2026-05-09 17:00 13.8 °C 83 % 1,005.8 2.7 mm 27.0 km/h SW
2026-05-09 16:00 15.4 °C 82 % 1,005.4 0.0 mm 24.8 km/h SW
2026-05-09 15:00 14.7 °C 86 % 1,005.1 1.4 mm 30.2 km/h SW
2026-05-09 14:00 16.4 °C 72 % 1,004.6 0.0 mm 31.7 km/h SW
2026-05-09 13:00 17.5 °C 64 % 1,004.0 0.0 mm 35.6 km/h SW
2026-05-09 12:00 16.8 °C 67 % 1,003.7 0.0 mm 31.3 km/h S
2026-05-09 11:00 15.9 °C 72 % 1,003.3 0.0 mm 25.2 km/h S
2026-05-09 10:00 14.4 °C 87 % 1,002.9 0.0 mm 13.0 km/h SE
2026-05-09 09:00 11.6 °C 96 % 1,002.9 0.0 mm 9.0 km/h SE
2026-05-09 08:00 10.4 °C 97 % 1,002.9 0.0 mm 11.9 km/h SE
2026-05-09 07:00 10.5 °C 96 % 1,003.1 3.5 mm 9.4 km/h SE
2026-05-09 06:00 11.3 °C 92 % 1,002.7 2.4 mm 12.6 km/h SE
2026-05-09 05:00 11.2 °C 88 % 1,003.2 0.0 mm 14.0 km/h SE
2026-05-09 04:00 11.2 °C 86 % 1,003.9 0.0 mm 14.8 km/h SE
2026-05-09 03:00 12.0 °C 84 % 1,004.3 0.0 mm 15.1 km/h SE
2026-05-09 02:00 13.2 °C 79 % 1,004.8 0.0 mm 16.6 km/h SE
2026-05-09 01:00 13.6 °C 82 % 1,004.7 0.0 mm 21.6 km/h S
2026-05-09 00:00 13.6 °C 82 % 1,004.6 0.1 mm 22.0 km/h S
2026-05-08 23:00 13.9 °C 82 % 1,004.7 0.0 mm 19.8 km/h SE
2026-05-08 22:00 13.9 °C 80 % 1,005.0 0.0 mm 11.9 km/h SE
2026-05-08 21:00 14.2 °C 79 % 1,005.5 0.0 mm 13.0 km/h SE
2026-05-08 20:00 15.6 °C 69 % 1,005.7 0.0 mm 17.3 km/h SE